Wausau, WI (54401)

3:36 PM CST on February 13, 2016 (GMT -0600)
Thomas Jefferson Elementary, Across the Street | | Change Station
CLOSE
Current Station
Personal Weather Station
Location: Wausau, WI
Elevation: 1276 ft
Nearby Weather Stations

Elev 1276 ft 44.98 °N, 89.64 °W | Updated 12 minutes ago

Clear
Clear
7.9 °F
Feels Like 1 °F
N
3.7
Wind Variable Wind from SW

Today
High -- | Low -- °F
--% Chance of Precip.
Yesterday
High -- | Low -- °F
Precip. -- in
Pressure 30.56 in
Visibility -9999.0 miles
Clouds Clear
Windchill 1 °F
Dew Point -5 °F
Humidity 54%
Rainfall 0.00 in
Snow Depth Not available.
7:03 AM 5:23 PM
Waxing Crescent, 34% visible
METAR KAUW 132054Z AUTO 27008KT CLR M14/M22 A3044 RMK AO2 SLP348 T11391222 56017
Pressure 30.56 in
Visibility -9999.0 miles
Clouds Clear
Windchill 1 °F
Dew Point -5 °F
Humidity 54%
Rainfall 0.00 in
Snow Depth Not available.
7:03 AM 5:23 PM
Waxing Crescent, 34% visible
METAR KAUW 132054Z AUTO 27008KT CLR M14/M22 A3044 RMK AO2 SLP348 T11391222 56017

10-Day Weather Forecast

Almanac

Astronomy

Feb. 13, 2016 Rise Set
Actual Time
Civil Twilight
Nautical Twilight
Astronomical Twilight
Moon
Length of Visible Light
Length of Day
Tomorrow will be .
, % of the Moon is Illuminated

Today's Extremes

State Highs State Lows

Community

WunderPhotos

Upload Photos

1,892,682 photos uploaded!

WunderBlog® & News

Nearby

Air Quality

  Air Quality AQ Index Pollutant
Not available.

Snow Depth

Station Depth Elevation

Earthquake Activity

City Distance Mag. Time & Date
Minimum magnitude displayed is 2.5.

Coastal Water Temperatures

Place Temperature

Stations

Nearby Weather Stations

Station Location Temp. Windchill Dew Point Humidity Wind Precip. Elev Updated Type
                   

Watches & Warnings

There are currently no watches in effect.